sensor_id;sensor_type;location;lat;lon;timestamp;temperature;humidity
21123;DHT22;10719;48.130;11.630;2024-03-02T00:00:07;5.80;99.90
21123;DHT22;10719;48.130;11.630;2024-03-02T00:02:45;5.80;99.90
21123;DHT22;10719;48.130;11.630;2024-03-02T00:05:12;5.70;99.90
21123;DHT22;10719;48.130;11.630;2024-03-02T00:07:41;5.80;99.90
21123;DHT22;10719;48.130;11.630;2024-03-02T00:10:09;5.80;99.90
21123;DHT22;10719;48.130;11.630;2024-03-02T00:12:38;5.80;99.90
21123;DHT22;10719;48.130;11.630;2024-03-02T00:17:59;5.80;99.90
21123;DHT22;10719;48.130;11.630;2024-03-02T00:20:25;5.80;99.90
21123;DHT22;10719;48.130;11.630;2024-03-02T00:23:04;5.80;99.90
21123;DHT22;10719;48.130;11.630;2024-03-02T00:25:49;5.70;99.90
21123;DHT22;10719;48.130;11.630;2024-03-02T00:30:57;5.80;99.90
21123;DHT22;10719;48.130;11.630;2024-03-02T00:33:25;5.70;99.90
21123;DHT22;10719;48.130;11.630;2024-03-02T00:35:51;5.70;99.90
21123;DHT22;10719;48.130;11.630;2024-03-02T00:38:17;5.80;99.90
21123;DHT22;10719;48.130;11.630;2024-03-02T00:40:44;5.80;99.90
21123;DHT22;10719;48.130;11.630;2024-03-02T00:43:38;5.80;99.90
21123;DHT22;10719;48.130;11.630;2024-03-02T00:46:06;5.80;99.90
21123;DHT22;10719;48.130;11.630;2024-03-02T00:48:32;5.80;99.90
21123;DHT22;10719;48.130;11.630;2024-03-02T00:51:04;5.80;99.90
21123;DHT22;10719;48.130;11.630;2024-03-02T00:53:30;5.90;99.90
21123;DHT22;10719;48.130;11.630;2024-03-02T00:55:57;5.80;99.90
21123;DHT22;10719;48.130;11.630;2024-03-02T00:58:22;5.80;99.90
21123;DHT22;10719;48.130;11.630;2024-03-02T01:00:48;5.80;99.90
21123;DHT22;10719;48.130;11.630;2024-03-02T01:03:15;5.80;99.90
21123;DHT22;10719;48.130;11.630;2024-03-02T01:05:43;5.80;99.90
21123;DHT22;10719;48.130;11.630;2024-03-02T01:08:10;5.80;99.90
21123;DHT22;10719;48.130;11.630;2024-03-02T01:10:35;5.80;99.90
21123;DHT22;10719;48.130;11.630;2024-03-02T01:13:01;5.80;99.90
21123;DHT22;10719;48.130;11.630;2024-03-02T01:15:27;5.80;99.90
21123;DHT22;10719;48.130;11.630;2024-03-02T01:17:53;5.80;99.90
21123;DHT22;10719;48.130;11.630;2024-03-02T01:20:18;5.70;99.90
21123;DHT22;10719;48.130;11.630;2024-03-02T01:22:44;5.70;99.90
21123;DHT22;10719;48.130;11.630;2024-03-02T01:25:09;5.70;99.90
21123;DHT22;10719;48.130;11.630;2024-03-02T01:27:35;5.70;99.90
21123;DHT22;10719;48.130;11.630;2024-03-02T01:30:01;5.70;99.90
21123;DHT22;10719;48.130;11.630;2024-03-02T01:32:26;5.60;99.90
21123;DHT22;10719;48.130;11.630;2024-03-02T01:34:52;5.60;99.90
21123;DHT22;10719;48.130;11.630;2024-03-02T01:37:18;5.60;99.90
21123;DHT22;10719;48.130;11.630;2024-03-02T01:39:43;5.60;99.90
21123;DHT22;10719;48.130;11.630;2024-03-02T01:42:09;5.60;99.90
21123;DHT22;10719;48.130;11.630;2024-03-02T01:44:36;5.50;99.90
21123;DHT22;10719;48.130;11.630;2024-03-02T01:47:02;5.50;99.90
21123;DHT22;10719;48.130;11.630;2024-03-02T01:49:27;5.50;99.90
21123;DHT22;10719;48.130;11.630;2024-03-02T01:51:53;5.50;99.90
21123;DHT22;10719;48.130;11.630;2024-03-02T01:54:19;5.50;99.90
21123;DHT22;10719;48.130;11.630;2024-03-02T01:56:44;5.50;99.90
21123;DHT22;10719;48.130;11.630;2024-03-02T01:59:10;5.60;99.90
21123;DHT22;10719;48.130;11.630;2024-03-02T02:01:37;5.60;99.90
21123;DHT22;10719;48.130;11.630;2024-03-02T02:04:02;5.60;99.90
21123;DHT22;10719;48.130;11.630;2024-03-02T02:06:28;5.60;99.90
21123;DHT22;10719;48.130;11.630;2024-03-02T02:08:53;5.70;99.90
21123;DHT22;10719;48.130;11.630;2024-03-02T02:11:19;5.70;99.90
21123;DHT22;10719;48.130;11.630;2024-03-02T02:13:45;5.60;99.90
21123;DHT22;10719;48.130;11.630;2024-03-02T02:16:11;5.70;99.90
21123;DHT22;10719;48.130;11.630;2024-03-02T02:18:36;5.70;99.90
21123;DHT22;10719;48.130;11.630;2024-03-02T02:21:02;5.60;99.90
21123;DHT22;10719;48.130;11.630;2024-03-02T02:23:29;5.60;99.90
21123;DHT22;10719;48.130;11.630;2024-03-02T02:25:54;5.50;99.90
21123;DHT22;10719;48.130;11.630;2024-03-02T02:28:20;5.50;99.90
21123;DHT22;10719;48.130;11.630;2024-03-02T02:30:45;5.50;99.90
21123;DHT22;10719;48.130;11.630;2024-03-02T02:33:11;5.50;99.90
21123;DHT22;10719;48.130;11.630;2024-03-02T02:35:37;5.50;99.90
21123;DHT22;10719;48.130;11.630;2024-03-02T02:38:03;5.50;99.90
21123;DHT22;10719;48.130;11.630;2024-03-02T02:40:29;5.50;99.90
21123;DHT22;10719;48.130;11.630;2024-03-02T02:42:56;5.40;99.90
21123;DHT22;10719;48.130;11.630;2024-03-02T02:45:22;5.50;99.90
21123;DHT22;10719;48.130;11.630;2024-03-02T02:47:48;5.40;99.90
21123;DHT22;10719;48.130;11.630;2024-03-02T02:50:13;5.40;99.90
21123;DHT22;10719;48.130;11.630;2024-03-02T02:52:41;5.40;99.90
21123;DHT22;10719;48.130;11.630;2024-03-02T02:55:09;5.40;99.90
21123;DHT22;10719;48.130;11.630;2024-03-02T02:57:35;5.40;99.90
21123;DHT22;10719;48.130;11.630;2024-03-02T03:00:05;5.40;99.90
21123;DHT22;10719;48.130;11.630;2024-03-02T03:02:36;5.50;99.90
21123;DHT22;10719;48.130;11.630;2024-03-02T03:05:01;5.50;99.90
21123;DHT22;10719;48.130;11.630;2024-03-02T03:07:27;5.50;99.90
21123;DHT22;10719;48.130;11.630;2024-03-02T03:09:52;5.50;99.90
21123;DHT22;10719;48.130;11.630;2024-03-02T03:12:18;5.30;99.90
21123;DHT22;10719;48.130;11.630;2024-03-02T03:14:44;5.30;99.90
21123;DHT22;10719;48.130;11.630;2024-03-02T03:17:09;5.40;99.90
21123;DHT22;10719;48.130;11.630;2024-03-02T03:19:35;5.40;99.90
21123;DHT22;10719;48.130;11.630;2024-03-02T03:22:01;5.50;99.90
21123;DHT22;10719;48.130;11.630;2024-03-02T03:24:27;5.50;99.90
21123;DHT22;10719;48.130;11.630;2024-03-02T03:26:52;5.50;99.90
21123;DHT22;10719;48.130;11.630;2024-03-02T03:29:18;5.60;99.90
21123;DHT22;10719;48.130;11.630;2024-03-02T03:31:44;5.60;99.90
21123;DHT22;10719;48.130;11.630;2024-03-02T03:34:09;5.60;99.90
21123;DHT22;10719;48.130;11.630;2024-03-02T03:36:35;5.60;99.90
21123;DHT22;10719;48.130;11.630;2024-03-02T03:39:00;5.60;99.90
21123;DHT22;10719;48.130;11.630;2024-03-02T03:41:27;5.70;99.90
21123;DHT22;10719;48.130;11.630;2024-03-02T03:43:53;5.70;99.90
21123;DHT22;10719;48.130;11.630;2024-03-02T03:46:18;5.80;99.90
21123;DHT22;10719;48.130;11.630;2024-03-02T03:48:44;5.80;99.90
21123;DHT22;10719;48.130;11.630;2024-03-02T03:51:09;5.70;99.90
21123;DHT22;10719;48.130;11.630;2024-03-02T03:53:35;5.60;99.90
21123;DHT22;10719;48.130;11.630;2024-03-02T03:56:00;5.60;99.90
21123;DHT22;10719;48.130;11.630;2024-03-02T03:58:26;5.60;99.90
21123;DHT22;10719;48.130;11.630;2024-03-02T04:00:52;5.60;99.90
21123;DHT22;10719;48.130;11.630;2024-03-02T04:03:18;5.50;99.90
21123;DHT22;10719;48.130;11.630;2024-03-02T04:05:43;5.50;99.90
21123;DHT22;10719;48.130;11.630;2024-03-02T04:08:09;5.60;99.90
21123;DHT22;10719;48.130;11.630;2024-03-02T04:10:36;5.50;99.90
21123;DHT22;10719;48.130;11.630;2024-03-02T04:13:02;5.60;99.90
21123;DHT22;10719;48.130;11.630;2024-03-02T04:15:28;5.50;99.90
21123;DHT22;10719;48.130;11.630;2024-03-02T04:17:54;5.50;99.90
21123;DHT22;10719;48.130;11.630;2024-03-02T04:20:20;5.50;99.90
21123;DHT22;10719;48.130;11.630;2024-03-02T04:22:46;5.60;99.90
21123;DHT22;10719;48.130;11.630;2024-03-02T04:25:11;5.60;99.90
21123;DHT22;10719;48.130;11.630;2024-03-02T04:27:37;5.60;99.90
21123;DHT22;10719;48.130;11.630;2024-03-02T04:30:04;5.60;99.90
21123;DHT22;10719;48.130;11.630;2024-03-02T04:32:30;5.60;99.90
21123;DHT22;10719;48.130;11.630;2024-03-02T04:34:56;5.70;99.90
21123;DHT22;10719;48.130;11.630;2024-03-02T04:37:22;5.70;99.90
21123;DHT22;10719;48.130;11.630;2024-03-02T04:39:48;5.70;99.90
21123;DHT22;10719;48.130;11.630;2024-03-02T04:42:13;5.70;99.90
21123;DHT22;10719;48.130;11.630;2024-03-02T04:44:39;5.70;99.90
21123;DHT22;10719;48.130;11.630;2024-03-02T04:47:05;5.70;99.90
21123;DHT22;10719;48.130;11.630;2024-03-02T04:49:30;5.70;99.90
21123;DHT22;10719;48.130;11.630;2024-03-02T04:51:56;5.70;99.90
21123;DHT22;10719;48.130;11.630;2024-03-02T04:54:22;5.70;99.90
21123;DHT22;10719;48.130;11.630;2024-03-02T04:56:48;5.70;99.90
21123;DHT22;10719;48.130;11.630;2024-03-02T04:59:17;5.70;99.90
21123;DHT22;10719;48.130;11.630;2024-03-02T05:01:43;5.70;99.90
21123;DHT22;10719;48.130;11.630;2024-03-02T05:04:09;5.70;99.90
21123;DHT22;10719;48.130;11.630;2024-03-02T05:06:37;5.70;99.90
21123;DHT22;10719;48.130;11.630;2024-03-02T05:09:04;5.60;99.90
21123;DHT22;10719;48.130;11.630;2024-03-02T05:11:30;5.60;99.90
21123;DHT22;10719;48.130;11.630;2024-03-02T05:14:07;5.70;99.90
21123;DHT22;10719;48.130;11.630;2024-03-02T05:16:34;5.70;99.90
21123;DHT22;10719;48.130;11.630;2024-03-02T05:18:59;5.70;99.90
21123;DHT22;10719;48.130;11.630;2024-03-02T05:21:25;5.70;99.90
21123;DHT22;10719;48.130;11.630;2024-03-02T05:23:51;5.80;99.90
21123;DHT22;10719;48.130;11.630;2024-03-02T05:26:16;5.80;99.90
21123;DHT22;10719;48.130;11.630;2024-03-02T05:28:42;5.80;99.90
21123;DHT22;10719;48.130;11.630;2024-03-02T05:31:10;5.80;99.90
21123;DHT22;10719;48.130;11.630;2024-03-02T05:33:40;5.70;99.90
21123;DHT22;10719;48.130;11.630;2024-03-02T05:36:06;5.70;99.90
21123;DHT22;10719;48.130;11.630;2024-03-02T05:38:32;5.70;99.90
21123;DHT22;10719;48.130;11.630;2024-03-02T05:40:58;5.70;99.90
21123;DHT22;10719;48.130;11.630;2024-03-02T05:43:23;5.60;99.90
21123;DHT22;10719;48.130;11.630;2024-03-02T05:45:49;5.60;99.90
21123;DHT22;10719;48.130;11.630;2024-03-02T05:48:15;5.60;99.90
21123;DHT22;10719;48.130;11.630;2024-03-02T05:50:40;5.70;99.90
21123;DHT22;10719;48.130;11.630;2024-03-02T05:53:06;5.60;99.90
21123;DHT22;10719;48.130;11.630;2024-03-02T05:55:31;5.60;99.90
21123;DHT22;10719;48.130;11.630;2024-03-02T05:57:57;5.60;99.90
21123;DHT22;10719;48.130;11.630;2024-03-02T06:00:32;5.60;99.90
21123;DHT22;10719;48.130;11.630;2024-03-02T06:02:58;5.60;99.90
21123;DHT22;10719;48.130;11.630;2024-03-02T06:05:24;5.50;99.90
21123;DHT22;10719;48.130;11.630;2024-03-02T06:07:50;5.50;99.90
21123;DHT22;10719;48.130;11.630;2024-03-02T06:10:16;5.50;99.90
21123;DHT22;10719;48.130;11.630;2024-03-02T06:12:43;5.60;99.90
21123;DHT22;10719;48.130;11.630;2024-03-02T06:15:09;5.50;99.90
21123;DHT22;10719;48.130;11.630;2024-03-02T06:17:35;5.50;99.90
21123;DHT22;10719;48.130;11.630;2024-03-02T06:20:01;5.50;99.90
21123;DHT22;10719;48.130;11.630;2024-03-02T06:22:27;5.60;99.90
21123;DHT22;10719;48.130;11.630;2024-03-02T06:24:52;5.60;99.90
21123;DHT22;10719;48.130;11.630;2024-03-02T06:27:18;5.60;99.90
21123;DHT22;10719;48.130;11.630;2024-03-02T06:29:44;5.60;99.90
21123;DHT22;10719;48.130;11.630;2024-03-02T06:32:09;5.60;99.90
21123;DHT22;10719;48.130;11.630;2024-03-02T06:34:35;5.60;99.90
21123;DHT22;10719;48.130;11.630;2024-03-02T06:37:00;5.70;99.90
21123;DHT22;10719;48.130;11.630;2024-03-02T06:39:26;5.70;99.90
21123;DHT22;10719;48.130;11.630;2024-03-02T06:41:52;5.80;99.90
21123;DHT22;10719;48.130;11.630;2024-03-02T06:44:17;5.80;99.90
21123;DHT22;10719;48.130;11.630;2024-03-02T06:46:43;5.80;99.90
21123;DHT22;10719;48.130;11.630;2024-03-02T06:49:09;5.80;99.90
21123;DHT22;10719;48.130;11.630;2024-03-02T06:51:36;5.80;99.90
21123;DHT22;10719;48.130;11.630;2024-03-02T06:54:01;5.80;99.90
21123;DHT22;10719;48.130;11.630;2024-03-02T06:56:27;5.70;99.90
21123;DHT22;10719;48.130;11.630;2024-03-02T06:58:53;5.80;99.90
21123;DHT22;10719;48.130;11.630;2024-03-02T07:01:18;5.70;99.90
21123;DHT22;10719;48.130;11.630;2024-03-02T07:03:45;5.90;99.90
21123;DHT22;10719;48.130;11.630;2024-03-02T07:06:11;5.90;99.90
21123;DHT22;10719;48.130;11.630;2024-03-02T07:08:36;5.90;99.90
21123;DHT22;10719;48.130;11.630;2024-03-02T07:11:02;5.90;99.90
21123;DHT22;10719;48.130;11.630;2024-03-02T07:13:28;6.00;99.90
21123;DHT22;10719;48.130;11.630;2024-03-02T07:15:53;6.00;99.90
21123;DHT22;10719;48.130;11.630;2024-03-02T07:18:31;6.00;99.90
21123;DHT22;10719;48.130;11.630;2024-03-02T07:20:57;6.10;99.90
21123;DHT22;10719;48.130;11.630;2024-03-02T07:23:27;6.20;99.90
21123;DHT22;10719;48.130;11.630;2024-03-02T07:25:53;6.30;99.90
21123;DHT22;10719;48.130;11.630;2024-03-02T07:28:27;6.20;99.90
21123;DHT22;10719;48.130;11.630;2024-03-02T07:31:03;6.10;99.90
21123;DHT22;10719;48.130;11.630;2024-03-02T07:33:30;6.10;99.90
21123;DHT22;10719;48.130;11.630;2024-03-02T07:35:56;6.00;99.90
21123;DHT22;10719;48.130;11.630;2024-03-02T07:38:23;6.00;99.90
21123;DHT22;10719;48.130;11.630;2024-03-02T07:40:49;6.00;99.90
21123;DHT22;10719;48.130;11.630;2024-03-02T07:43:18;6.00;99.90
21123;DHT22;10719;48.130;11.630;2024-03-02T07:45:45;6.00;99.90
21123;DHT22;10719;48.130;11.630;2024-03-02T07:48:11;6.10;99.90
21123;DHT22;10719;48.130;11.630;2024-03-02T07:50:36;6.10;99.90
21123;DHT22;10719;48.130;11.630;2024-03-02T07:53:03;6.10;99.90
21123;DHT22;10719;48.130;11.630;2024-03-02T07:55:29;6.00;99.90
21123;DHT22;10719;48.130;11.630;2024-03-02T07:57:56;6.00;99.90
21123;DHT22;10719;48.130;11.630;2024-03-02T08:00:22;6.00;99.90
21123;DHT22;10719;48.130;11.630;2024-03-02T08:02:48;5.90;99.90
21123;DHT22;10719;48.130;11.630;2024-03-02T08:05:16;6.00;99.90
21123;DHT22;10719;48.130;11.630;2024-03-02T08:07:43;6.00;99.90
21123;DHT22;10719;48.130;11.630;2024-03-02T08:10:09;6.10;99.90
21123;DHT22;10719;48.130;11.630;2024-03-02T08:12:35;6.10;99.90
21123;DHT22;10719;48.130;11.630;2024-03-02T08:15:00;6.10;99.90
21123;DHT22;10719;48.130;11.630;2024-03-02T08:17:26;6.10;99.90
21123;DHT22;10719;48.130;11.630;2024-03-02T08:19:52;6.20;99.90
21123;DHT22;10719;48.130;11.630;2024-03-02T08:22:18;6.20;99.90
21123;DHT22;10719;48.130;11.630;2024-03-02T08:24:44;6.30;99.90
21123;DHT22;10719;48.130;11.630;2024-03-02T08:27:10;6.30;99.90
21123;DHT22;10719;48.130;11.630;2024-03-02T08:29:36;6.30;99.90
21123;DHT22;10719;48.130;11.630;2024-03-02T08:32:01;6.30;99.90
21123;DHT22;10719;48.130;11.630;2024-03-02T08:34:27;6.30;99.90
21123;DHT22;10719;48.130;11.630;2024-03-02T08:36:53;6.40;99.90
21123;DHT22;10719;48.130;11.630;2024-03-02T08:39:19;6.40;99.90
21123;DHT22;10719;48.130;11.630;2024-03-02T08:41:45;6.40;99.90
21123;DHT22;10719;48.130;11.630;2024-03-02T08:44:12;6.40;99.90
21123;DHT22;10719;48.130;11.630;2024-03-02T08:46:39;6.40;99.90
21123;DHT22;10719;48.130;11.630;2024-03-02T08:49:05;6.40;99.90
21123;DHT22;10719;48.130;11.630;2024-03-02T08:51:30;6.60;99.90
21123;DHT22;10719;48.130;11.630;2024-03-02T08:53:57;6.80;99.90
21123;DHT22;10719;48.130;11.630;2024-03-02T08:56:23;6.90;99.90
21123;DHT22;10719;48.130;11.630;2024-03-02T08:58:50;7.20;99.90
21123;DHT22;10719;48.130;11.630;2024-03-02T09:01:16;7.40;99.90
21123;DHT22;10719;48.130;11.630;2024-03-02T09:03:42;7.60;99.90
21123;DHT22;10719;48.130;11.630;2024-03-02T09:06:11;7.60;99.90
21123;DHT22;10719;48.130;11.630;2024-03-02T09:08:37;7.70;99.90
21123;DHT22;10719;48.130;11.630;2024-03-02T09:11:04;7.90;99.90
21123;DHT22;10719;48.130;11.630;2024-03-02T09:13:30;8.00;99.90
21123;DHT22;10719;48.130;11.630;2024-03-02T09:15:55;8.10;99.90
21123;DHT22;10719;48.130;11.630;2024-03-02T09:18:21;8.30;99.90
21123;DHT22;10719;48.130;11.630;2024-03-02T09:20:47;8.30;99.90
21123;DHT22;10719;48.130;11.630;2024-03-02T09:23:13;8.40;99.90
21123;DHT22;10719;48.130;11.630;2024-03-02T09:25:38;8.60;99.90
21123;DHT22;10719;48.130;11.630;2024-03-02T09:28:04;8.70;99.90
21123;DHT22;10719;48.130;11.630;2024-03-02T09:30:29;8.80;99.90
21123;DHT22;10719;48.130;11.630;2024-03-02T09:32:55;8.90;99.90
21123;DHT22;10719;48.130;11.630;2024-03-02T09:35:21;8.90;99.90
21123;DHT22;10719;48.130;11.630;2024-03-02T09:37:46;9.10;99.90
21123;DHT22;10719;48.130;11.630;2024-03-02T09:40:13;9.40;99.90
21123;DHT22;10719;48.130;11.630;2024-03-02T09:42:40;9.70;99.90
21123;DHT22;10719;48.130;11.630;2024-03-02T09:45:06;9.70;99.90
21123;DHT22;10719;48.130;11.630;2024-03-02T09:47:32;9.70;99.90
21123;DHT22;10719;48.130;11.630;2024-03-02T09:49:58;9.90;99.90
21123;DHT22;10719;48.130;11.630;2024-03-02T09:52:24;10.20;99.90
21123;DHT22;10719;48.130;11.630;2024-03-02T09:54:50;10.50;99.90
21123;DHT22;10719;48.130;11.630;2024-03-02T09:57:16;10.80;99.90
21123;DHT22;10719;48.130;11.630;2024-03-02T09:59:42;11.60;99.90
21123;DHT22;10719;48.130;11.630;2024-03-02T10:02:07;13.20;99.90
21123;DHT22;10719;48.130;11.630;2024-03-02T10:04:33;13.90;99.90
21123;DHT22;10719;48.130;11.630;2024-03-02T10:07:13;14.40;99.90
21123;DHT22;10719;48.130;11.630;2024-03-02T10:09:41;14.50;99.90
21123;DHT22;10719;48.130;11.630;2024-03-02T10:12:10;15.70;99.90
21123;DHT22;10719;48.130;11.630;2024-03-02T10:14:40;16.00;99.90
21123;DHT22;10719;48.130;11.630;2024-03-02T10:17:11;17.50;99.90
21123;DHT22;10719;48.130;11.630;2024-03-02T10:19:38;18.20;99.90
21123;DHT22;10719;48.130;11.630;2024-03-02T10:22:05;16.40;99.90
21123;DHT22;10719;48.130;11.630;2024-03-02T10:24:42;17.60;99.90
21123;DHT22;10719;48.130;11.630;2024-03-02T10:27:25;16.80;99.90
21123;DHT22;10719;48.130;11.630;2024-03-02T10:29:52;15.80;99.90
21123;DHT22;10719;48.130;11.630;2024-03-02T10:32:17;17.40;99.90
21123;DHT22;10719;48.130;11.630;2024-03-02T10:34:44;18.60;99.90
21123;DHT22;10719;48.130;11.630;2024-03-02T10:37:11;19.30;99.90
21123;DHT22;10719;48.130;11.630;2024-03-02T10:39:37;18.30;99.90
21123;DHT22;10719;48.130;11.630;2024-03-02T10:42:06;17.90;99.90
21123;DHT22;10719;48.130;11.630;2024-03-02T10:44:32;17.00;99.90
21123;DHT22;10719;48.130;11.630;2024-03-02T10:47:03;16.50;99.90
21123;DHT22;10719;48.130;11.630;2024-03-02T10:49:30;16.90;99.90
21123;DHT22;10719;48.130;11.630;2024-03-02T10:51:58;16.40;99.90
21123;DHT22;10719;48.130;11.630;2024-03-02T10:54:23;16.70;99.90
21123;DHT22;10719;48.130;11.630;2024-03-02T10:56:53;18.80;99.90
21123;DHT22;10719;48.130;11.630;2024-03-02T10:59:36;19.70;99.90
21123;DHT22;10719;48.130;11.630;2024-03-02T11:02:04;18.60;99.90
21123;DHT22;10719;48.130;11.630;2024-03-02T11:04:32;18.80;99.90
21123;DHT22;10719;48.130;11.630;2024-03-02T11:07:03;18.80;99.90
21123;DHT22;10719;48.130;11.630;2024-03-02T11:09:31;18.90;99.90
21123;DHT22;10719;48.130;11.630;2024-03-02T11:12:12;18.30;99.90
21123;DHT22;10719;48.130;11.630;2024-03-02T11:14:40;18.40;99.90
21123;DHT22;10719;48.130;11.630;2024-03-02T11:17:09;18.60;99.90
21123;DHT22;10719;48.130;11.630;2024-03-02T11:19:38;19.80;99.90
21123;DHT22;10719;48.130;11.630;2024-03-02T11:22:04;20.00;99.90
21123;DHT22;10719;48.130;11.630;2024-03-02T11:24:31;18.70;99.90
21123;DHT22;10719;48.130;11.630;2024-03-02T11:27:00;19.70;99.90
21123;DHT22;10719;48.130;11.630;2024-03-02T11:32:02;19.20;99.90
21123;DHT22;10719;48.130;11.630;2024-03-02T11:34:35;19.70;99.90
21123;DHT22;10719;48.130;11.630;2024-03-02T11:37:02;19.70;99.90
21123;DHT22;10719;48.130;11.630;2024-03-02T11:39:28;19.20;99.90
21123;DHT22;10719;48.130;11.630;2024-03-02T11:41:55;18.20;99.90
21123;DHT22;10719;48.130;11.630;2024-03-02T11:44:21;19.00;99.90
21123;DHT22;10719;48.130;11.630;2024-03-02T11:47:05;19.40;99.90
21123;DHT22;10719;48.130;11.630;2024-03-02T11:49:43;19.60;99.90
21123;DHT22;10719;48.130;11.630;2024-03-02T11:52:12;18.80;99.90
21123;DHT22;10719;48.130;11.630;2024-03-02T11:54:39;18.50;99.90
21123;DHT22;10719;48.130;11.630;2024-03-02T11:57:08;18.70;99.90
21123;DHT22;10719;48.130;11.630;2024-03-02T11:59:34;18.90;99.90
21123;DHT22;10719;48.130;11.630;2024-03-02T12:02:00;19.30;99.90
21123;DHT22;10719;48.130;11.630;2024-03-02T12:04:26;19.80;99.90
21123;DHT22;10719;48.130;11.630;2024-03-02T12:06:56;19.00;99.90
21123;DHT22;10719;48.130;11.630;2024-03-02T12:09:25;19.80;99.90
21123;DHT22;10719;48.130;11.630;2024-03-02T12:12:08;20.50;99.90
21123;DHT22;10719;48.130;11.630;2024-03-02T12:14:36;20.70;99.90
21123;DHT22;10719;48.130;11.630;2024-03-02T12:17:02;19.30;99.90
21123;DHT22;10719;48.130;11.630;2024-03-02T12:19:29;19.80;99.90
21123;DHT22;10719;48.130;11.630;2024-03-02T12:21:59;18.60;99.90
21123;DHT22;10719;48.130;11.630;2024-03-02T12:24:27;19.80;99.90
21123;DHT22;10719;48.130;11.630;2024-03-02T12:26:54;19.30;99.90
21123;DHT22;10719;48.130;11.630;2024-03-02T12:29:20;19.00;99.90
21123;DHT22;10719;48.130;11.630;2024-03-02T12:31:48;20.80;99.90
21123;DHT22;10719;48.130;11.630;2024-03-02T12:34:15;21.30;99.90
21123;DHT22;10719;48.130;11.630;2024-03-02T12:36:41;21.70;99.90
21123;DHT22;10719;48.130;11.630;2024-03-02T12:39:10;21.10;99.90
21123;DHT22;10719;48.130;11.630;2024-03-02T12:41:37;21.40;99.90
21123;DHT22;10719;48.130;11.630;2024-03-02T12:44:06;20.60;99.90
21123;DHT22;10719;48.130;11.630;2024-03-02T12:46:32;19.80;99.90
21123;DHT22;10719;48.130;11.630;2024-03-02T12:48:58;20.20;99.90
21123;DHT22;10719;48.130;11.630;2024-03-02T12:51:26;21.20;99.90
21123;DHT22;10719;48.130;11.630;2024-03-02T12:53:54;21.70;99.90
21123;DHT22;10719;48.130;11.630;2024-03-02T12:56:20;21.70;99.90
21123;DHT22;10719;48.130;11.630;2024-03-02T12:58:45;21.60;99.90
21123;DHT22;10719;48.130;11.630;2024-03-02T13:01:14;21.10;99.90
21123;DHT22;10719;48.130;11.630;2024-03-02T13:03:40;21.40;99.90
21123;DHT22;10719;48.130;11.630;2024-03-02T13:06:06;22.00;99.90
21123;DHT22;10719;48.130;11.630;2024-03-02T13:08:33;22.00;99.90
21123;DHT22;10719;48.130;11.630;2024-03-02T13:10:59;21.90;99.90
21123;DHT22;10719;48.130;11.630;2024-03-02T13:13:24;22.70;99.90
21123;DHT22;10719;48.130;11.630;2024-03-02T13:15:50;22.30;99.90
21123;DHT22;10719;48.130;11.630;2024-03-02T13:18:19;21.40;99.90
21123;DHT22;10719;48.130;11.630;2024-03-02T13:20:45;21.70;99.90
21123;DHT22;10719;48.130;11.630;2024-03-02T13:23:10;21.30;99.90
21123;DHT22;10719;48.130;11.630;2024-03-02T13:25:36;21.10;99.90
21123;DHT22;10719;48.130;11.630;2024-03-02T13:28:02;22.10;99.90
21123;DHT22;10719;48.130;11.630;2024-03-02T13:30:28;21.50;99.90
21123;DHT22;10719;48.130;11.630;2024-03-02T13:32:54;21.60;99.90
21123;DHT22;10719;48.130;11.630;2024-03-02T13:35:20;22.00;99.90
21123;DHT22;10719;48.130;11.630;2024-03-02T13:37:45;21.70;99.90
21123;DHT22;10719;48.130;11.630;2024-03-02T13:40:11;21.70;99.90
21123;DHT22;10719;48.130;11.630;2024-03-02T13:42:42;20.90;99.90
21123;DHT22;10719;48.130;11.630;2024-03-02T13:45:08;21.30;99.90
21123;DHT22;10719;48.130;11.630;2024-03-02T13:47:33;21.50;99.90
21123;DHT22;10719;48.130;11.630;2024-03-02T13:49:59;20.80;99.90
21123;DHT22;10719;48.130;11.630;2024-03-02T13:52:25;22.00;99.90
21123;DHT22;10719;48.130;11.630;2024-03-02T13:54:51;22.50;99.90
21123;DHT22;10719;48.130;11.630;2024-03-02T13:57:20;22.30;99.90
21123;DHT22;10719;48.130;11.630;2024-03-02T13:59:46;22.00;99.90
21123;DHT22;10719;48.130;11.630;2024-03-02T14:02:12;21.90;99.90
21123;DHT22;10719;48.130;11.630;2024-03-02T14:04:38;22.10;99.90
21123;DHT22;10719;48.130;11.630;2024-03-02T14:07:05;21.50;99.90
21123;DHT22;10719;48.130;11.630;2024-03-02T14:09:34;22.50;99.90
21123;DHT22;10719;48.130;11.630;2024-03-02T14:11:59;22.10;99.90
21123;DHT22;10719;48.130;11.630;2024-03-02T14:14:28;22.40;99.90
21123;DHT22;10719;48.130;11.630;2024-03-02T14:16:57;21.50;99.90
21123;DHT22;10719;48.130;11.630;2024-03-02T14:19:26;21.30;99.90
21123;DHT22;10719;48.130;11.630;2024-03-02T14:21:51;20.50;99.90
21123;DHT22;10719;48.130;11.630;2024-03-02T14:24:17;20.70;99.90
21123;DHT22;10719;48.130;11.630;2024-03-02T14:26:43;20.90;99.90
21123;DHT22;10719;48.130;11.630;2024-03-02T14:29:08;21.80;99.90
21123;DHT22;10719;48.130;11.630;2024-03-02T14:31:34;21.30;99.90
21123;DHT22;10719;48.130;11.630;2024-03-02T14:34:00;21.30;99.90
21123;DHT22;10719;48.130;11.630;2024-03-02T14:36:26;21.20;99.90
21123;DHT22;10719;48.130;11.630;2024-03-02T14:38:53;21.50;99.90
21123;DHT22;10719;48.130;11.630;2024-03-02T14:41:19;20.90;99.90
21123;DHT22;10719;48.130;11.630;2024-03-02T14:43:44;20.30;99.90
21123;DHT22;10719;48.130;11.630;2024-03-02T14:46:10;19.50;99.90
21123;DHT22;10719;48.130;11.630;2024-03-02T14:48:37;19.00;99.90
21123;DHT22;10719;48.130;11.630;2024-03-02T14:51:03;18.00;99.90
21123;DHT22;10719;48.130;11.630;2024-03-02T14:53:30;16.90;99.90
21123;DHT22;10719;48.130;11.630;2024-03-02T14:55:55;16.50;99.90
21123;DHT22;10719;48.130;11.630;2024-03-02T14:58:21;16.10;99.90
21123;DHT22;10719;48.130;11.630;2024-03-02T15:00:47;15.70;99.90
21123;DHT22;10719;48.130;11.630;2024-03-02T15:03:12;15.60;99.90
21123;DHT22;10719;48.130;11.630;2024-03-02T15:05:38;15.60;99.90
21123;DHT22;10719;48.130;11.630;2024-03-02T15:08:06;15.20;99.90
21123;DHT22;10719;48.130;11.630;2024-03-02T15:10:31;15.50;99.90
21123;DHT22;10719;48.130;11.630;2024-03-02T15:13:00;15.40;99.90
21123;DHT22;10719;48.130;11.630;2024-03-02T15:15:25;15.50;99.90
21123;DHT22;10719;48.130;11.630;2024-03-02T15:17:52;15.10;99.90
21123;DHT22;10719;48.130;11.630;2024-03-02T15:20:18;15.20;99.90
21123;DHT22;10719;48.130;11.630;2024-03-02T15:22:45;15.20;99.90
21123;DHT22;10719;48.130;11.630;2024-03-02T15:25:11;15.20;99.90
21123;DHT22;10719;48.130;11.630;2024-03-02T15:27:37;14.80;99.90
21123;DHT22;10719;48.130;11.630;2024-03-02T15:30:03;14.90;99.90